Flight Track Log - Related Links

Times and Time Zones

All times are in EDT time to prevent confusion due to time zone crossing. See the RPA3143 flight status page for this flight to view local times or setup timezone preferences in your user account.

Time Position Orientation Groundspeed Altitude Reporting Facility
EDT Latitude Longitude Course Direction KTS MPH feet Rate Location/Type
Thu 07:53:15 AM 38.8340 -77.0147 203° Southwest  Level FlightAware Approximate
Thu 07:54:15 AM 38.7326 -77.0311 359° North  Level FlightAware Approximate
Thu 07:55:12 AM 38.8000 -77.0333 153° Southeast 161 185 2,100  Level Potomac TRACON
Thu 07:56:13 AM 38.7500 -77.0000 132° Southeast 252 290 4,100 1,158 Climbing Potomac TRACON
Thu 07:58:34 AM 38.6297 -76.8300 130° Southeast 263 303 6,000 1,164 Climbing Washington Center
Thu 07:59:34 AM 38.5783 -76.7522 159° South 268 308 8,000 2,200 Climbing Washington Center
Thu 08:00:34 AM 38.5058 -76.7167 175° South 265 305 10,400 2,132 Climbing Washington Center
Thu 08:01:35 AM 38.4161 -76.7072 174° South 279 321 12,300 2,118 Climbing Washington Center
Thu 08:02:33 AM 38.3244 -76.6953 173° South 314 361 14,600 2,521 Climbing Washington Center
Thu 08:03:34 AM 38.2267 -76.6806 174° South 350 403 17,300 2,410 Climbing Washington Center
Thu 08:04:35 AM 38.1331 -76.6689 173° South 350 403 19,500 2,033 Climbing Washington Center
Thu 08:05:35 AM 38.0372 -76.6542 178° South 350 403 21,400 1,831 Climbing Washington Center
Thu 08:06:33 AM 37.9350 -76.6503 185° South 356 410 23,100 1,729 Climbing Washington Center
Thu 08:07:33 AM 37.8369 -76.6619 186° South 361 415 24,800 1,525 Climbing Washington Center
Thu 08:08:35 AM 37.7325 -76.6764 185° South 366 421 26,200 1,300 Climbing Washington Center
Thu 08:09:33 AM 37.6258 -76.6878 186° South 379 436 27,400 958 Climbing Washington Center
Thu 08:10:34 AM 37.5131 -76.7019 191° South 395 455 28,100 885 Climbing Washington Center
Thu 08:11:35 AM 37.4025 -76.7292 198° South 406 467 29,200 1,041 Climbing Washington Center
Thu 08:12:35 AM 37.2936 -76.7744 198° South 411 473 30,200 966 Climbing Washington Center
Thu 08:13:33 AM 37.1825 -76.8197 200° South 417 480 31,100 915 Climbing Washington Center
Thu 08:14:33 AM 37.0756 -76.8675 198° South 422 486 32,000 446 Climbing Washington Center
Thu 08:15:34 AM 36.9644 -76.9125 198° South 422 486 32,000  Level Washington Center
Thu 08:16:35 AM 36.8533 -76.9572 199° South 429 494 32,000  Level Washington Center
Thu 08:17:32 AM 36.7422 -77.0044 199° South 429 494 32,000  Level Washington Center
Thu 08:18:33 AM 36.6333 -77.0517 197° South 424 488 32,000  Level Washington Center
Thu 08:19:34 AM 36.5200 -77.0961 198° South 424 488 32,000 248 Level Washington Center
Thu 08:20:34 AM 36.4131 -77.1406 198° South 418 481 32,500 595 Climbing Washington Center
Thu 08:21:35 AM 36.3042 -77.1847 199° South 418 481 33,200 857 Climbing Washington Center
Thu 08:22:33 AM 36.1928 -77.2314 199° South 418 481 34,200 966 Climbing Washington Center
Thu 08:23:33 AM 36.1025 -77.2708 197° South 404 465 35,100 793 Climbing Washington Center
Thu 08:24:34 AM 35.9936 -77.3119 198° South 404 465 35,800 446 Climbing Washington Center
Thu 08:25:34 AM 35.8886 -77.3533 199° South 404 465 36,000 99 Climbing Washington Center
Thu 08:26:35 AM 35.7836 -77.3972 196° South 404 465 36,000  Level Washington Center
Thu 08:27:33 AM 35.6767 -77.4356 210° Southwest 404 465 36,000  Level Washington Center
Thu 08:28:34 AM 35.5711 -77.5097 220° Southwest 404 465 36,000  Level Washington Center
Thu 08:29:35 AM 35.4861 -77.5969 219° Southwest 399 459 36,000  Level Washington Center
Thu 08:30:35 AM 35.4014 -77.6817 218° Southwest 404 465 36,000  Level Washington Center
Thu 08:31:33 AM 35.3100 -77.7683 218° Southwest 404 465 36,000  Level Washington Center
Thu 08:32:33 AM 35.2250 -77.8497 219° Southwest 404 465 36,000  Level Washington Center
Thu 08:33:35 AM 35.1400 -77.9339 217° Southwest 399 459 36,000  Level Washington Center
Thu 08:34:33 AM 35.0528 -78.0150 218° Southwest 404 465 36,000  Level Washington Center
Thu 08:35:34 AM 34.9742 -78.0911 218° Southwest 404 465 36,000  Level Washington Center
Thu 08:36:35 AM 34.8867 -78.1747 221° Southwest 404 465 36,000  Level Washington Center
Thu 08:37:35 AM 34.8056 -78.2606 219° Southwest 399 459 36,000  Level Washington Center
Thu 08:38:33 AM 34.7203 -78.3436 217° Southwest 399 459 36,000  Level Washington Center
Thu 08:39:34 AM 34.6222 -78.4339 217° Southwest 399 459 36,000  Level Washington Center
Thu 08:40:46 AM 34.5222 -78.5256 221° Southwest 403 464 36,000  Level Jacksonville Center
Thu 08:41:46 AM 34.4356 -78.6156 218° Southwest 395 455 36,000  Level Jacksonville Center
Thu 08:42:46 AM 34.3508 -78.6950 218° Southwest 390 449 36,000  Level Jacksonville Center
Thu 08:43:46 AM 34.2636 -78.7772 218° Southwest 397 457 36,000  Level Jacksonville Center
Thu 08:44:46 AM 34.1767 -78.8592 218° Southwest 397 457 36,000  Level Jacksonville Center
Thu 08:45:46 AM 34.0894 -78.9408 219° Southwest 402 463 36,000  Level Jacksonville Center
Thu 08:46:46 AM 34.0025 -79.0250 218° Southwest 402 463 36,000  Level Jacksonville Center
Thu 08:47:46 AM 33.9153 -79.1064 218° Southwest 402 463 36,000  Level Jacksonville Center
Thu 08:48:46 AM 33.8278 -79.1875 218° Southwest 407 468 36,000  Level Jacksonville Center
Thu 08:49:46 AM 33.7425 -79.2686 215° Southwest 402 463 36,000  Level Jacksonville Center
Thu 08:50:46 AM 33.6653 -79.3342 217° Southwest 397 457 36,000  Level Jacksonville Center
Thu 08:51:46 AM 33.5778 -79.4125 218° Southwest 397 457 36,000  Level Jacksonville Center
Thu 08:52:46 AM 33.4942 -79.4906 217° Southwest 397 457 36,000  Level Jacksonville Center
Thu 08:53:46 AM 33.4086 -79.5683 217° Southwest 397 457 36,000  Level Jacksonville Center
Thu 08:54:46 AM 33.3231 -79.6461 218° Southwest 397 457 36,000  Level Jacksonville Center
Thu 08:55:46 AM 33.2414 -79.7236 217° Southwest 397 457 36,000  Level Jacksonville Center
Thu 08:56:46 AM 33.1578 -79.7986 217° Southwest 392 451 36,000  Level Jacksonville Center
Thu 08:57:46 AM 33.0719 -79.8758 217° Southwest 392 451 36,000  Level Jacksonville Center
Thu 08:58:46 AM 32.9861 -79.9531 216° Southwest 392 451 36,000  Level Jacksonville Center
Thu 08:59:46 AM 32.9003 -80.0275 214° Southwest 392 451 36,000  Level Jacksonville Center
Thu 09:00:45 AM 32.7997 -80.1075 212° Southwest 392 451 36,000  Level Jacksonville Center
Thu 09:01:45 AM 32.7114 -80.1742 210° Southwest 392 451 36,000  Level Jacksonville Center
Thu 09:02:45 AM 32.6167 -80.2389 213° Southwest 392 451 36,000  Level Jacksonville Center
Thu 09:03:45 AM 32.5283 -80.3078 211° Southwest 386 444 36,000  Level Jacksonville Center
Thu 09:04:45 AM 32.4358 -80.3744 212° Southwest 386 444 36,000  Level Jacksonville Center
Thu 09:05:45 AM 32.3453 -80.4408 211° Southwest 381 438 36,000  Level Jacksonville Center
Thu 09:06:45 AM 32.2528 -80.5072 213° Southwest 387 445 36,000  Level Jacksonville Center
Thu 09:07:45 AM 32.1600 -80.5783 212° Southwest 392 451 36,000  Level Jacksonville Center
Thu 09:08:45 AM 32.0775 -80.6394 210° Southwest 392 451 36,000  Level Jacksonville Center
Thu 09:09:45 AM 31.9744 -80.7106 211° Southwest 392 451 36,000  Level Jacksonville Center
Thu 09:10:45 AM 31.8900 -80.7711 213° Southwest 397 457 36,000  Level Jacksonville Center
Thu 09:11:45 AM 31.7889 -80.8469 209° Southwest 397 457 36,000  Level Jacksonville Center
Thu 09:12:45 AM 31.6939 -80.9100 195° South 395 455 36,000  Level Jacksonville Center
Thu 09:13:45 AM 31.5919 -80.9414 190° South 402 463 36,000  Level Jacksonville Center
Thu 09:14:45 AM 31.4650 -80.9683 192° South 429 494 36,000  Level Jacksonville Center
Thu 09:15:45 AM 31.3486 -80.9975 189° South 429 494 36,000  Level Jacksonville Center
Thu 09:16:45 AM 31.2422 -81.0167 187° South 436 502 36,000  Level Jacksonville Center
Thu 09:17:45 AM 31.1214 -81.0336 184° South 436 502 36,000  Level Jacksonville Center
Thu 09:18:45 AM 30.9983 -81.0433 181° South 436 502 36,000  Level Jacksonville Center
Thu 09:19:45 AM 30.8753 -81.0458 183° South 441 507 36,000  Level Jacksonville Center
Thu 09:20:45 AM 30.7564 -81.0531 182° South 441 507 36,000 -250 Level Jacksonville Center
Thu 09:21:45 AM 30.6375 -81.0575 183° South 441 507 35,500 -750 Descending Jacksonville Center
Thu 09:22:45 AM 30.5164 -81.0647 182° South 441 507 34,500 -1,000 Descending Jacksonville Center
Thu 09:23:45 AM 30.3956 -81.0694 182° South 441 507 33,500 -1,240 Descending Jacksonville Center
Thu 09:24:46 AM 30.2597 -81.0744 183° South 441 507 32,000 -1,488 Descending Jacksonville Center
Thu 09:25:46 AM 30.1367 -81.0817 182° South 441 507 30,500 -1,500 Descending Jacksonville Center
Thu 09:26:46 AM 30.0136 -81.0864 183° South 441 507 29,000 -1,500 Descending Jacksonville Center
Thu 09:27:46 AM 29.8928 -81.0933 182° South 441 507 27,500 -1,500 Descending Jacksonville Center
Thu 09:28:46 AM 29.7800 -81.0978 182° South 434 499 26,000 -1,500 Descending Jacksonville Center
Thu 09:29:46 AM 29.6694 -81.1022 182° South 413 475 24,500 -1,800 Descending Jacksonville Center
Thu 09:30:46 AM 29.5631 -81.1067 182° South 400 460 22,400 -2,050 Descending Jacksonville Center
Thu 09:31:46 AM 29.4608 -81.1108 180° South 384 442 20,400 -2,000 Descending Jacksonville Center
Thu 09:32:46 AM 29.3586 -81.1103 180° South 378 435 18,400 -1,950 Descending Jacksonville Center
Thu 09:33:46 AM 29.2561 -81.1097 176° South 373 429 16,500 -1,900 Descending Jacksonville Center
Thu 09:34:46 AM 29.1558 -81.1022 177° South 366 421 14,600 -1,850 Descending Jacksonville Center
Thu 09:35:46 AM 29.0619 -81.0967 174° South 361 415 12,800 -1,300 Descending Jacksonville Center
Thu 09:36:46 AM 28.9742 -81.0864 171° South 348 400 12,000 10,600 Descending Jacksonville Center
Thu 09:37:46 AM 28.8903 -81.0714 201° Southwest 318 366 34,000 -1,550 Climbing Jacksonville Center
Thu 09:38:46 AM 28.8219 -81.1011 225° Southwest 274 315 8,900 -13,400 Descending Jacksonville Center
Thu 09:39:46 AM 28.7664 -81.1636 227° Southwest 268 308 7,200 -1,350 Descending Jacksonville Center
Thu 09:40:46 AM 28.7172 -81.2236 213° Southwest 274 315 6,200 -1,100 Descending Jacksonville Center
Thu 09:41:46 AM 28.6656 -81.2625 202° Southwest 254 292 5,000 -1,277 Descending Jacksonville Center
Thu 09:43:07 AM 28.5833 -81.3000 202° Southwest 223 257 3,200 -1,333 Descending Orlando TRACON

Login

Don't have an account? Register now (free) for customized features, flight alerts, and more!